Nome, Alaska
Current Conditions -  °F | °C
As of 7:53 AM on Saturday 22 Nov 2014 (Local Time) from PAOM Reporting Station
Clear Clear  
Wind Chill: -10°   Ceiling: Unl
Heat Index: -4°   Visibility: 10mi
Dew Point: -13°   Wind: 9mph
Humidity: 51%   Direction: 10°N
Pressure: 29.3"   Gusts: NA
Location:  64.5°N, 165.41°W
Report Text: PAOM 221653Z 01008KT 10SM CLR M04/M13 A2930 RMK SLP922 T10441133 VIA AUTODIAL
Loading
Personal Weather Stations






























Interactive Weather Map New forecast layout! Learn more

10-Day Weather Forecast

Advertisements
Track Severe Weather on mobile